Time;durP1;ratioP1;P1;durP2;ratioP2;P2;SDS_P1;SDS_P2;PMS_P1;PMS_P2;Temp;Humidity;BMP_temperature;BMP_pressure;BME280_temperature;BME280_humidity;BME280_pressure;Samples;Min_cycle;Max_cycle;Signal;HPM_P1;HPM_P2
2022/07/21 00:02:27;;;;;;;19.63;12.03;;;;;;;19.30;100.00;101200.22;7389863;19;20768;-60
2022/07/21 00:04:57;;;;;;;20.33;11.83;;;;;;;19.34;100.00;101190.69;7395699;19;20384;-59
2022/07/21 00:07:26;;;;;;;16.80;10.80;;;;;;;19.30;100.00;101186.28;7389832;19;20415;-60
2022/07/21 00:09:56;;;;;;;21.60;12.80;;;;;;;19.25;100.00;101167.91;7396070;19;20394;-60
2022/07/21 00:12:26;;;;;;;16.97;11.23;;;;;;;19.17;100.00;101161.69;7389606;19;20422;-60
2022/07/21 00:14:55;;;;;;;18.30;12.10;;;;;;;19.20;100.00;101143.44;7395468;19;20387;-60
2022/07/21 00:17:28;;;;;;;23.10;13.10;;;;;;;19.03;100.00;101140.63;7388253;19;20429;-60
2022/07/21 00:19:57;;;;;;;21.57;12.20;;;;;;;19.11;100.00;101127.63;7395792;19;20384;-61
2022/07/21 00:22:27;;;;;;;22.43;12.77;;;;;;;19.16;100.00;101132.06;7389209;19;20423;-60
2022/07/21 00:24:58;;;;;;;26.10;13.50;;;;;;;18.92;100.00;101127.34;7395018;19;20387;-60
2022/07/21 00:27:27;;;;;;;21.80;12.80;;;;;;;18.98;100.00;101116.97;7389508;19;20435;-60
2022/07/21 00:30:00;;;;;;;26.30;13.90;;;;;;;19.05;100.00;101098.78;7397988;19;20743;-59
2022/07/21 00:32:33;;;;;;;22.90;13.30;;;;;;;19.05;100.00;101098.78;7392071;19;20959;-60
2022/07/21 00:35:06;;;;;;;18.33;11.40;;;;;;;18.92;100.00;101077.69;7394204;19;20402;-60
2022/07/21 00:37:35;;;;;;;18.43;12.30;;;;;;;18.83;100.00;101064.50;7383075;19;20450;-60
2022/07/21 00:40:06;;;;;;;20.50;11.53;;;;;;;18.75;100.00;101047.00;7395948;19;20894;-60
2022/07/21 00:42:36;;;;;;;19.20;12.80;;;;;;;18.78;100.00;101034.81;7388677;19;20767;-60
2022/07/21 00:45:07;;;;;;;22.40;12.10;;;;;;;18.75;100.00;101013.03;7394118;19;20404;-60
2022/07/21 00:47:39;;;;;;;22.33;12.40;;;;;;;18.76;100.00;101012.16;7389158;19;20411;-60
2022/07/21 00:50:12;;;;;;;25.53;12.07;;;;;;;18.74;100.00;100998.22;7394689;19;20485;-61
2022/07/21 00:52:41;;;;;;;20.97;12.50;;;;;;;18.63;100.00;100997.19;7388809;19;20411;-60
2022/07/21 00:55:14;;;;;;;19.10;11.40;;;;;;;18.70;100.00;100980.72;7393769;19;20475;-60
2022/07/21 00:57:45;;;;;;;20.03;12.13;;;;;;;18.64;100.00;100975.44;7384117;19;20411;-60
2022/07/21 01:00:18;;;;;;;22.93;13.60;;;;;;;18.47;100.00;100952.59;7394375;19;20383;-60
2022/07/21 01:02:50;;;;;;;22.00;12.40;;;;;;;18.45;100.00;100936.03;7387813;19;20415;-60
2022/07/21 01:05:20;;;;;;;27.23;14.30;;;;;;;18.38;100.00;100923.75;7393342;19;20418;-59
2022/07/21 01:07:51;;;;;;;21.60;13.60;;;;;;;18.33;100.00;100912.38;7376220;19;20426;-60
2022/07/21 01:10:22;;;;;;;69.90;41.07;;;;;;;18.33;100.00;100881.94;7391812;19;20837;-60
2022/07/21 01:12:53;;;;;;;22.80;13.97;;;;;;;18.30;100.00;100873.19;7386113;19;20419;-60
2022/07/21 01:15:22;;;;;;;22.57;13.53;;;;;;;18.31;100.00;100864.47;7393165;19;20787;-60
2022/07/21 01:17:55;;;;;;;32.07;18.00;;;;;;;18.17;100.00;100859.97;7386437;19;20403;-59
2022/07/21 01:20:26;;;;;;;21.27;13.70;;;;;;;18.22;100.00;100853.06;7393468;19;20396;-60
2022/07/21 01:22:58;;;;;;;25.07;15.40;;;;;;;18.25;100.00;100851.34;7379995;19;20977;-59
2022/07/21 01:25:28;;;;;;;23.73;13.00;;;;;;;18.31;100.00;100851.44;7391925;19;20423;-59
2022/07/21 01:27:58;;;;;;;23.13;11.67;;;;;;;18.26;100.00;100847.88;7384907;19;20407;-62
2022/07/21 01:30:27;;;;;;;19.20;11.90;;;;;;;18.13;100.00;100850.34;7392892;19;20376;-62
2022/07/21 01:32:57;;;;;;;22.17;12.70;;;;;;;18.13;100.00;100832.06;7388178;19;20456;-61
2022/07/21 01:35:27;;;;;;;19.10;12.93;;;;;;;18.25;100.00;100831.31;7391040;19;20415;-61
2022/07/21 01:38:00;;;;;;;17.90;12.60;;;;;;;18.21;100.00;100824.34;7374498;19;20409;-62
2022/07/21 01:43:12;;;;;;;19.80;12.20;;;;;;;18.06;100.00;100783.25;7386774;19;21246;-62
2022/07/21 01:45:42;;;;;;;19.60;12.87;;;;;;;18.09;100.00;100778.06;7391714;19;20415;-62
2022/07/21 01:48:12;;;;;;;20.87;12.73;;;;;;;17.87;100.00;100767.34;7387148;19;20399;-62
2022/07/21 01:50:42;;;;;;;21.70;13.10;;;;;;;17.62;100.00;100756.63;7392737;19;20399;-61
2022/07/21 01:53:14;;;;;;;23.77;13.07;;;;;;;17.43;100.00;100749.41;7386080;19;20417;-62
2022/07/21 01:55:43;;;;;;;21.53;11.70;;;;;;;17.17;100.00;100682.16;7391311;19;20435;-61
2022/07/21 01:58:13;;;;;;;23.53;14.77;;;;;;;17.19;100.00;100597.03;7385687;19;20429;-62
2022/07/21 02:00:42;;;;;;;25.07;15.03;;;;;;;17.24;100.00;100566.69;7393184;19;20392;-62
2022/07/21 02:03:12;;;;;;;25.57;15.10;;;;;;;17.20;100.00;100538.81;7386402;19;20405;-61
2022/07/21 02:05:41;;;;;;;28.03;14.73;;;;;;;17.18;100.00;100515.34;7391404;19;20937;-61
2022/07/21 02:08:13;;;;;;;25.40;15.00;;;;;;;17.29;100.00;100484.19;7385871;19;20411;-62
2022/07/21 02:10:43;;;;;;;26.67;13.77;;;;;;;17.37;100.00;100464.25;7391933;19;20392;-62
2022/07/21 02:13:12;;;;;;;27.10;15.47;;;;;;;17.44;100.00;100472.13;7386783;19;20410;-59
2022/07/21 02:15:42;;;;;;;29.57;15.23;;;;;;;17.44;100.00;100470.41;7391151;19;20506;-62
2022/07/21 02:18:12;;;;;;;25.10;13.93;;;;;;;17.41;100.00;100481.69;7385428;19;20410;-62
2022/07/21 02:20:41;;;;;;;22.67;13.10;;;;;;;17.29;100.00;100465.94;7392072;19;20395;-61
2022/07/21 02:23:13;;;;;;;26.60;14.13;;;;;;;17.23;100.00;100447.63;7391496;19;20417;-62
2022/07/21 02:25:43;;;;;;;30.73;15.87;;;;;;;17.27;100.00;100442.44;7397982;19;20529;-62
2022/07/21 02:28:13;;;;;;;27.20;15.23;;;;;;;17.22;100.00;100430.25;7391637;19;20398;-62
2022/07/21 02:30:43;;;;;;;33.20;14.80;;;;;;;17.19;100.00;100411.94;7403640;19;20410;-62
2022/07/21 02:33:12;;;;;;;21.27;13.77;;;;;;;17.20;100.00;100398.06;7394723;19;20462;-63
2022/07/21 02:35:42;;;;;;;28.97;16.13;;;;;;;17.20;100.00;100398.94;7397522;19;20496;-62
2022/07/21 02:38:14;;;;;;;27.03;14.30;;;;;;;17.11;100.00;100415.38;7388094;19;20427;-62
2022/07/21 02:40:44;;;;;;;29.93;16.43;;;;;;;17.12;100.00;100432.75;7398960;19;20479;-63
2022/07/21 02:43:14;;;;;;;21.00;14.20;;;;;;;17.20;100.00;100434.56;7394288;19;20433;-62
2022/07/21 02:45:44;;;;;;;23.43;14.13;;;;;;;17.14;100.00;100459.69;7400316;19;20435;-62
2022/07/21 02:48:15;;;;;;;25.30;14.60;;;;;;;17.08;100.00;100503.94;7392381;19;20402;-62
2022/07/21 02:50:46;;;;;;;29.17;14.97;;;;;;;17.06;100.00;100620.34;7398843;19;20382;-62
2022/07/21 02:53:19;;;;;;;28.10;16.90;;;;;;;17.11;100.00;100678.63;7392364;19;20421;-62
2022/07/21 02:55:50;;;;;;;26.40;15.17;;;;;;;17.18;100.00;100770.78;7397104;19;20426;-62
2022/07/21 02:58:21;;;;;;;30.13;17.07;;;;;;;17.16;100.00;100982.81;7392565;19;20433;-61
2022/07/21 03:00:53;;;;;;;25.67;14.37;;;;;;;17.11;100.00;101055.69;7398260;19;20390;-62
2022/07/21 03:03:23;;;;;;;28.63;17.90;;;;;;;17.16;100.00;101137.47;7392640;19;20406;-62
2022/07/21 03:05:53;;;;;;;37.07;18.80;;;;;;;17.05;100.00;101233.69;7396875;19;20436;-62
2022/07/21 03:08:26;;;;;;;38.83;20.10;;;;;;;16.95;100.00;101344.63;7380045;19;20440;-62
2022/07/21 03:10:55;;;;;;;37.93;20.77;;;;;;;16.98;100.00;101398.56;7398355;19;20407;-61
2022/07/21 03:13:25;;;;;;;44.87;19.20;;;;;;;17.02;100.00;101447.34;7391916;19;20414;-62
2022/07/21 03:15:55;;;;;;;38.33;20.20;;;;;;;16.99;100.00;101471.56;7396379;19;20418;-62
2022/07/21 03:18:25;;;;;;;30.87;18.33;;;;;;;16.99;100.00;101478.53;7390384;19;20417;-62
2022/07/21 03:20:55;;;;;;;30.33;18.27;;;;;;;17.03;100.00;101480.41;7397688;19;20382;-63
2022/07/21 03:23:27;;;;;;;36.97;18.10;;;;;;;17.17;100.00;101461.63;7392277;19;20410;-62
2022/07/21 03:25:57;;;;;;;32.70;18.60;;;;;;;17.04;100.00;101455.19;7396034;19;20430;-63
2022/07/21 03:28:27;;;;;;;34.43;19.40;;;;;;;16.99;100.00;101461.13;7389192;19;20431;-62
2022/07/21 03:30:56;;;;;;;42.10;19.60;;;;;;;16.93;100.00;101452.28;7397468;19;20388;-63
2022/07/21 03:33:26;;;;;;;36.50;19.73;;;;;;;16.82;100.00;101454.63;7389583;19;20872;-63
2022/07/21 03:35:57;;;;;;;32.13;18.73;;;;;;;16.84;100.00;101440.78;7395593;19;20740;-63
2022/07/21 03:38:29;;;;;;;32.67;18.87;;;;;;;16.89;100.00;101425.28;7376411;19;20445;-63
2022/07/21 03:40:59;;;;;;;33.13;18.73;;;;;;;16.88;100.00;101426.97;7397192;19;20936;-62
2022/07/21 03:43:28;;;;;;;37.47;17.90;;;;;;;16.87;100.00;101420.00;7390999;19;20409;-62
2022/07/21 03:45:58;;;;;;;34.47;17.57;;;;;;;16.96;100.00;101410.66;7395454;19;20486;-63
2022/07/21 03:48:27;;;;;;;40.77;16.73;;;;;;;17.01;100.00;101403.84;7390752;19;20493;-61
2022/07/21 03:50:57;;;;;;;31.37;16.43;;;;;;;17.01;100.00;101390.81;7396737;19;20391;-62
2022/07/21 03:53:29;;;;;;;35.60;16.27;;;;;;;17.02;100.00;101379.56;7391637;19;20417;-62
2022/07/21 03:55:59;;;;;;;25.87;14.40;;;;;;;17.07;100.00;101361.47;7395128;19;20406;-62
2022/07/21 03:58:29;;;;;;;26.50;14.40;;;;;;;17.10;100.00;101356.31;7388480;19;20438;-62
2022/07/21 04:00:59;;;;;;;26.17;13.13;;;;;;;17.16;100.00;101360.81;7396452;19;20387;-62
2022/07/21 04:03:30;;;;;;;24.90;12.70;;;;;;;17.21;100.00;101349.63;7389489;19;20422;-62
2022/07/21 04:06:00;;;;;;;25.90;12.10;;;;;;;17.27;100.00;101348.88;7394979;19;20410;-62
2022/07/21 04:08:32;;;;;;;27.70;12.30;;;;;;;17.35;100.00;101336.94;7379487;19;20440;-62
2022/07/21 04:11:01;;;;;;;22.50;11.83;;;;;;;17.37;100.00;101335.22;7396082;19;20462;-63
2022/07/21 04:13:31;;;;;;;18.27;10.43;;;;;;;17.40;100.00;101345.69;7388575;19;20422;-62
2022/07/21 04:16:00;;;;;;;24.03;11.30;;;;;;;17.45;100.00;101347.53;7394468;19;20509;-62
2022/07/21 04:18:30;;;;;;;24.67;9.90;;;;;;;17.48;100.00;101348.50;7388525;19;20438;-62
2022/07/21 04:21:00;;;;;;;17.73;10.10;;;;;;;17.55;100.00;101339.09;7395816;19;20469;-62
2022/07/21 04:23:32;;;;;;;30.30;11.47;;;;;;;17.63;100.00;101314.03;7390362;19;20429;-62
2022/07/21 04:26:01;;;;;;;16.27;9.80;;;;;;;17.70;100.00;101303.75;7394041;19;20415;-62
2022/07/21 04:28:31;;;;;;;26.67;10.30;;;;;;;17.73;100.00;101314.25;7389595;19;20745;-61
2022/07/21 04:31:00;;;;;;;25.67;9.77;;;;;;;17.77;100.00;101329.09;7396101;19;20400;-62
2022/07/21 04:33:30;;;;;;;20.20;9.50;;;;;;;17.79;100.00;101337.88;7389877;19;20430;-62
2022/07/21 04:36:06;;;;;;;18.00;8.77;;;;;;;17.81;100.00;101352.69;7394515;19;20792;-61
2022/07/21 04:38:38;;;;;;;22.27;8.97;;;;;;;17.88;100.00;101363.25;7374910;19;20430;-62
2022/07/21 04:41:08;;;;;;;21.50;8.20;;;;;;;17.96;100.00;101361.72;7395263;19;20401;-62
2022/07/21 04:43:37;;;;;;;20.73;8.50;;;;;;;18.06;100.00;101368.88;7389361;19;20450;-62
2022/07/21 04:46:07;;;;;;;34.90;8.47;;;;;;;18.09;100.00;101362.84;7393560;19;20408;-61
2022/07/21 04:48:43;;;;;;;17.57;7.60;;;;;;;18.13;100.00;101355.97;7388999;19;20433;-62
2022/07/21 04:51:13;;;;;;;15.47;7.87;;;;;;;18.16;100.00;101356.03;7394787;19;20731;-62
2022/07/21 04:53:45;;;;;;;18.77;8.17;;;;;;;18.19;100.00;101341.31;7388206;19;21243;-62
2022/07/21 04:56:15;;;;;;;20.30;7.97;;;;;;;18.21;100.00;101336.13;7393006;19;20416;-62
2022/07/21 04:58:44;;;;;;;24.57;8.60;;;;;;;18.31;100.00;101342.41;7386888;19;20432;-62
2022/07/21 05:01:14;;;;;;;29.17;7.70;;;;;;;18.34;100.00;101345.06;7394122;19;20391;-62
2022/07/21 05:03:43;;;;;;;16.43;7.10;;;;;;;18.39;100.00;101345.13;7387206;19;20959;-62
2022/07/21 05:06:13;;;;;;;16.90;7.17;;;;;;;18.40;100.00;101346.94;7393025;19;20411;-62
2022/07/21 05:08:45;;;;;;;21.60;7.00;;;;;;;18.43;100.00;101332.19;7376335;19;20419;-62
2022/07/21 05:11:15;;;;;;;17.40;7.43;;;;;;;18.51;100.00;101336.66;7394138;19;20380;-62
2022/07/21 05:13:44;;;;;;;16.07;6.97;;;;;;;18.46;100.00;101342.69;7387025;19;20754;-62
2022/07/21 05:16:15;;;;;;;20.90;7.03;;;;;;;18.47;100.00;101344.44;7392690;19;20408;-62
2022/07/21 05:18:44;;;;;;;19.10;6.27;;;;;;;18.58;100.00;101333.31;7387297;19;20439;-62
2022/07/21 05:21:14;;;;;;;15.60;6.47;;;;;;;18.58;100.00;101307.19;7393862;19;20388;-62
2022/07/21 05:23:46;;;;;;;20.13;6.50;;;;;;;18.57;100.00;101272.31;7387021;19;20406;-61
2022/07/21 05:26:16;;;;;;;14.07;6.33;;;;;;;18.62;100.00;101280.25;7392168;19;20412;-61
2022/07/21 05:28:46;;;;;;;22.57;6.83;;;;;;;18.65;100.00;101310.78;7387628;19;20784;-62
2022/07/21 05:31:15;;;;;;;11.00;5.63;;;;;;;18.69;100.00;101329.16;7393306;19;20398;-62
2022/07/21 05:33:45;;;;;;;17.30;6.00;;;;;;;18.73;100.00;101333.56;7387496;19;20952;-62
2022/07/21 05:36:14;;;;;;;11.50;5.60;;;;;;;18.78;100.00;101353.69;7391779;19;20411;-62
2022/07/21 05:38:46;;;;;;;16.30;6.10;;;;;;;18.80;100.00;101362.41;7384991;19;20434;-62
2022/07/21 05:41:16;;;;;;;15.60;4.70;;;;;;;18.83;100.00;101358.16;7393486;19;20390;-62
2022/07/21 05:43:45;;;;;;;20.17;6.23;;;;;;;18.87;100.00;101301.56;7386934;19;20421;-62
2022/07/21 05:46:15;;;;;;;11.60;4.80;;;;;;;18.85;100.00;101301.53;7391336;19;20418;-62
2022/07/21 05:48:45;;;;;;;12.97;5.37;;;;;;;18.88;100.00;101324.22;7386293;19;20443;-62
2022/07/21 05:51:14;;;;;;;13.63;5.40;;;;;;;18.89;100.00;101342.56;7393139;19;20476;-62
2022/07/21 05:53:50;;;;;;;12.17;5.30;;;;;;;18.85;100.00;101347.69;7385888;19;20425;-62
2022/07/21 05:56:19;;;;;;;11.97;5.40;;;;;;;18.84;100.00;101339.00;7393940;19;20482;-62
2022/07/21 05:58:49;;;;;;;11.03;4.90;;;;;;;18.87;100.00;101351.22;7401159;19;20415;-62
2022/07/21 06:01:19;;;;;;;9.83;5.37;;;;;;;18.85;100.00;101366.00;7406940;19;20384;-62
2022/07/21 06:03:52;;;;;;;13.73;4.97;;;;;;;18.92;100.00;101367.84;7400250;19;20402;-62
2022/07/21 06:06:23;;;;;;;11.37;4.43;;;;;;;18.96;100.00;101379.25;7405956;19;20423;-62
2022/07/21 06:08:55;;;;;;;13.00;4.83;;;;;;;18.89;100.00;101402.69;7390222;19;20415;-61
2022/07/21 06:11:27;;;;;;;9.67;5.10;;;;;;;18.89;100.00;101420.09;7406702;19;20414;-62
2022/07/21 06:14:05;;;;;;;9.23;5.07;;;;;;;18.88;100.00;101453.19;7398830;19;20847;-61
2022/07/21 06:16:34;;;;;;;16.30;5.73;;;;;;;18.84;100.00;101463.56;7405413;19;20418;-62
2022/07/21 06:19:04;;;;;;;13.03;5.90;;;;;;;18.84;100.00;101474.91;7399525;19;20415;-62
2022/07/21 06:21:34;;;;;;;16.10;5.70;;;;;;;18.83;100.00;101473.16;7406184;19;20898;-62
2022/07/21 06:24:14;;;;;;;14.30;5.90;;;;;;;18.83;100.00;101464.44;7403245;19;20435;-61
2022/07/21 06:26:44;;;;;;;15.37;4.80;;;;;;;18.82;100.00;101470.50;7404800;19;20403;-62
2022/07/21 06:29:13;;;;;;;17.10;6.07;;;;;;;18.83;100.00;101462.69;7401829;19;20445;-61
2022/07/21 06:31:43;;;;;;;15.07;5.40;;;;;;;18.79;100.00;101470.44;7406025;19;20463;-62
2022/07/21 06:34:12;;;;;;;15.00;6.20;;;;;;;18.76;100.00;101459.06;7398685;19;20465;-62
2022/07/21 06:36:42;;;;;;;14.97;6.03;;;;;;;18.68;100.00;101431.94;7404418;19;20425;-62
2022/07/21 06:39:14;;;;;;;16.23;6.20;;;;;;;18.78;100.00;101395.50;7384354;19;20415;-62
2022/07/21 06:41:44;;;;;;;14.50;6.33;;;;;;;18.82;100.00;101395.56;7406032;19;20389;-62
2022/07/21 06:44:13;;;;;;;17.80;7.03;;;;;;;18.82;100.00;101381.63;7398404;19;20449;-62
2022/07/21 06:46:43;;;;;;;10.97;5.40;;;;;;;18.68;100.00;101381.38;7404156;19;20430;-62
2022/07/21 06:49:12;;;;;;;13.17;6.50;;;;;;;18.62;100.00;101363.88;7399390;19;20414;-62
2022/07/21 06:51:42;;;;;;;14.13;7.03;;;;;;;18.66;100.00;101362.19;7405755;19;20418;-62
2022/07/21 06:54:17;;;;;;;16.50;8.50;;;;;;;18.76;100.00;101351.91;7399040;19;20478;-62
2022/07/21 06:56:47;;;;;;;17.00;7.83;;;;;;;18.82;100.00;101347.66;7403993;19;20415;-62
2022/07/21 06:59:16;;;;;;;13.17;7.13;;;;;;;18.73;100.00;101357.06;7399086;19;20417;-62
2022/07/21 07:01:46;;;;;;;15.60;8.10;;;;;;;18.59;100.00;101348.13;7405112;19;20394;-62
2022/07/21 07:04:15;;;;;;;15.73;7.43;;;;;;;18.54;100.00;101321.03;7396214;19;20748;-62
2022/07/21 07:06:45;;;;;;;14.13;7.70;;;;;;;18.52;100.00;101300.13;7403720;19;20940;-62
2022/07/21 07:09:17;;;;;;;20.60;9.13;;;;;;;18.49;100.00;101284.38;7378591;19;20498;-62
2022/07/21 07:11:47;;;;;;;18.73;9.10;;;;;;;18.40;100.00;101292.06;7398137;19;20415;-62
2022/07/21 07:14:38;;;;;;;22.17;8.80;;;;;;;18.29;100.00;101286.63;7396839;19;20430;-62
2022/07/21 07:17:08;;;;;;;14.97;9.07;;;;;;;18.26;100.00;101289.19;7388724;19;20419;-62
2022/07/21 07:19:37;;;;;;;21.73;8.47;;;;;;;18.27;100.00;101298.78;7397013;19;20376;-62
2022/07/21 07:22:07;;;;;;;18.27;8.60;;;;;;;18.30;100.00;101293.63;7391450;19;20394;-61
2022/07/21 07:24:39;;;;;;;19.00;8.90;;;;;;;18.21;100.00;101295.22;7396946;19;20388;-62
2022/07/21 07:27:09;;;;;;;24.33;10.17;;;;;;;18.16;100.00;101299.47;7388677;19;20508;-62
2022/07/21 07:29:38;;;;;;;22.10;10.90;;;;;;;18.10;100.00;101307.16;7397266;19;20777;-62
2022/07/21 07:32:08;;;;;;;28.20;10.07;;;;;;;18.05;100.00;101308.81;7390091;19;20472;-62
2022/07/21 07:34:37;;;;;;;18.27;9.90;;;;;;;17.99;100.00;101299.09;7396745;19;20906;-62
2022/07/21 07:37:07;;;;;;;25.67;10.67;;;;;;;18.01;100.00;101280.88;7375922;19;20426;-62
2022/07/21 07:39:40;;;;;;;28.50;11.17;;;;;;;17.97;100.00;101292.09;7396578;19;20388;-61
2022/07/21 07:42:10;;;;;;;26.03;10.63;;;;;;;18.03;100.00;101292.22;7391419;19;20414;-62
2022/07/21 07:44:39;;;;;;;19.17;11.37;;;;;;;17.95;100.00;101284.25;7396288;19;20399;-61
2022/07/21 07:47:09;;;;;;;20.93;10.57;;;;;;;17.97;100.00;101279.03;7388523;19;20436;-61
2022/07/21 07:49:38;;;;;;;16.10;10.20;;;;;;;17.92;100.00;101272.03;7396954;19;20395;-62
2022/07/21 07:52:08;;;;;;;25.83;11.33;;;;;;;17.94;100.00;101265.09;7391081;19;20387;-62
2022/07/21 07:54:40;;;;;;;33.63;12.60;;;;;;;17.94;100.00;101262.47;7396027;19;20376;-61
2022/07/21 07:57:09;;;;;;;23.90;11.63;;;;;;;17.99;100.00;101253.88;7386999;19;20419;-62
2022/07/21 07:59:39;;;;;;;25.90;12.87;;;;;;;18.09;100.00;101253.19;7396196;19;20909;-62
2022/07/21 08:02:09;;;;;;;20.30;11.80;;;;;;;18.05;100.00;101254.88;7390883;19;20399;-62
2022/07/21 08:04:40;;;;;;;26.07;13.20;;;;;;;18.11;100.00;101256.75;7396318;19;20395;-62
2022/07/21 08:07:10;;;;;;;31.50;13.70;;;;;;;18.19;100.00;101269.91;7379988;19;20490;-61
2022/07/21 08:09:43;;;;;;;26.87;14.67;;;;;;;18.20;100.00;101269.94;7396194;19;20714;-62
2022/07/21 08:12:12;;;;;;;29.40;14.43;;;;;;;18.27;100.00;101262.22;7389446;19;20398;-62
2022/07/21 08:14:42;;;;;;;27.30;14.97;;;;;;;18.33;100.00;101252.78;7399980;19;20400;-62
2022/07/21 08:17:11;;;;;;;24.60;15.13;;;;;;;18.42;100.00;101265.13;7387737;19;20426;-62
2022/07/21 08:19:41;;;;;;;27.40;15.30;;;;;;;18.50;100.00;101254.78;7394617;19;20391;-62
2022/07/21 08:22:10;;;;;;;30.23;14.30;;;;;;;18.54;100.00;101255.72;7388594;19;20392;-62
2022/07/21 08:24:46;;;;;;;27.00;15.27;;;;;;;18.62;100.00;101251.50;7395050;19;20388;-62
2022/07/21 08:27:15;;;;;;;29.90;15.57;;;;;;;18.73;100.00;101252.53;7389774;19;20822;-63
2022/07/21 08:29:46;;;;;;;25.63;15.63;;;;;;;18.86;100.00;101243.16;7395409;19;20391;-62
2022/07/21 08:32:17;;;;;;;25.50;14.60;;;;;;;18.93;100.00;101223.25;7386615;19;20383;-62
2022/07/21 08:34:47;;;;;;;30.30;17.17;;;;;;;18.98;100.00;101215.44;7396742;19;21213;-62
2022/07/21 08:37:17;;;;;;;29.53;16.50;;;;;;;19.10;100.00;101214.78;7388736;19;20494;-62
2022/07/21 08:39:50;;;;;;;26.30;15.10;;;;;;;19.40;100.00;101216.03;7395462;19;20459;-62
2022/07/21 08:42:19;;;;;;;29.63;17.60;;;;;;;19.51;100.00;101214.44;7387361;19;20446;-62
2022/07/21 08:44:49;;;;;;;29.00;17.03;;;;;;;19.34;100.00;101234.25;7394516;19;20391;-62
2022/07/21 08:47:18;;;;;;;25.67;14.83;;;;;;;19.41;100.00;101247.47;7388974;19;20384;-62
2022/07/21 08:49:49;;;;;;;31.47;16.20;;;;;;;19.48;100.00;101255.38;7395300;19;20394;-62
2022/07/21 08:52:19;;;;;;;29.83;17.83;;;;;;;19.49;100.00;101273.69;7392516;19;20417;-62
2022/07/21 08:54:51;;;;;;;29.10;16.00;;;;;;;19.49;100.00;101271.06;7394332;19;20391;-62
2022/07/21 08:57:21;;;;;;;26.37;17.63;;;;;;;19.43;100.00;101277.13;7388200;19;20408;-62
2022/07/21 08:59:51;;;;;;;33.57;17.70;;;;;;;19.46;100.00;101286.75;7394742;19;20404;-61
2022/07/21 09:02:32;;;;;;;31.27;17.63;;;;;;;19.39;100.00;101295.38;7387405;19;20415;-62
2022/07/21 09:05:04;;;;;;;33.70;17.57;;;;;;;19.37;100.00;101297.97;7393849;19;20459;-62
2022/07/21 09:07:49;;;;;;;34.90;20.13;;;;;;;19.32;100.00;101311.84;7388636;19;20414;-62
2022/07/21 09:10:25;;;;;;;28.40;19.03;;;;;;;19.31;100.00;101313.56;7394281;19;20391;-62
2022/07/21 09:12:56;;;;;;;33.87;19.97;;;;;;;19.23;100.00;101321.31;7386948;19;20418;-62
2022/07/21 09:15:27;;;;;;;36.60;21.00;;;;;;;19.22;100.00;101322.16;7393366;19;20423;-62
2022/07/21 09:18:12;;;;;;;38.07;21.63;;;;;;;19.21;100.00;101316.91;7387637;19;20415;-62
2022/07/21 09:20:50;;;;;;;40.70;22.03;;;;;;;19.27;100.00;101312.66;7393828;19;20745;-62
2022/07/21 09:23:21;;;;;;;34.47;20.70;;;;;;;19.54;100.00;101299.94;7387391;19;20421;-62
2022/07/21 09:25:55;;;;;;;28.97;19.77;;;;;;;19.68;100.00;101307.94;7392596;19;20428;-62
2022/07/21 09:28:26;;;;;;;39.33;23.13;;;;;;;19.75;100.00;101309.81;7387010;19;20421;-62
2022/07/21 09:30:59;;;;;;;33.13;20.73;;;;;;;20.02;100.00;101324.13;7391004;19;20388;-62
2022/07/21 09:33:33;;;;;;;41.23;22.77;;;;;;;20.04;100.00;101338.09;7386679;19;20443;-62
2022/07/21 09:36:08;;;;;;;42.17;25.20;;;;;;;20.12;100.00;101339.91;7393241;19;20482;-61
2022/07/21 09:38:39;;;;;;;60.77;30.70;;;;;;;20.13;100.00;101352.16;7386184;19;20419;-62
2022/07/21 09:41:16;;;;;;;37.20;20.53;;;;;;;20.24;100.00;101355.78;7396280;19;20948;-61
2022/07/21 09:43:48;;;;;;;37.43;22.20;;;;;;;20.27;100.00;101368.03;7386997;19;20425;-62
2022/07/21 09:46:19;;;;;;;51.33;28.00;;;;;;;20.28;100.00;101381.16;7391787;19;20426;-62
2022/07/21 09:48:50;;;;;;;32.00;20.13;;;;;;;20.18;100.00;101387.13;7388550;19;20470;-62
2022/07/21 09:51:43;;;;;;;35.17;22.23;;;;;;;20.12;100.00;101408.91;7393254;19;20387;-62
2022/07/21 09:54:14;;;;;;;29.50;20.37;;;;;;;20.09;100.00;101393.16;7386264;19;20419;-61
2022/07/21 09:56:47;;;;;;;28.43;18.77;;;;;;;20.23;100.00;101390.69;7391330;19;20422;-62
2022/07/21 09:59:17;;;;;;;39.60;19.50;;;;;;;20.19;100.00;101394.13;7386434;19;20478;-61
2022/07/21 10:01:50;;;;;;;49.53;24.07;;;;;;;20.30;100.00;101389.91;7391442;19;20383;-62
2022/07/21 10:04:22;;;;;;;32.30;18.93;;;;;;;20.49;100.00;101392.72;7386418;19;20418;-62
2022/07/21 10:07:12;;;;;;;40.67;21.37;;;;;;;20.82;100.00;101401.78;7388667;19;20414;-62
2022/07/21 10:09:42;;;;;;;48.27;26.27;;;;;;;20.81;100.00;101409.66;7392493;19;20384;-62
2022/07/21 10:12:15;;;;;;;57.53;25.03;;;;;;;20.94;100.00;101424.66;7386748;19;20747;-61
2022/07/21 10:14:46;;;;;;;28.97;18.77;;;;;;;21.01;100.00;101430.84;7391760;19;20384;-62
2022/07/21 10:17:16;;;;;;;57.50;28.63;;;;;;;20.91;100.00;101441.25;7386335;19;20763;-62
2022/07/21 10:19:52;;;;;;;30.23;19.37;;;;;;;20.97;100.00;101442.19;7392219;19;20391;-62
2022/07/21 10:22:28;;;;;;;32.40;19.80;;;;;;;20.87;100.00;101457.81;7385846;19;20849;-62
2022/07/21 10:24:58;;;;;;;28.17;19.20;;;;;;;21.00;100.00;101468.41;7391515;19;20383;-62
2022/07/21 10:27:30;;;;;;;30.80;17.87;;;;;;;21.06;100.00;101463.22;7384896;19;20419;-62
2022/07/21 10:30:39;;;;;;;24.23;15.63;;;;;;;21.41;100.00;101472.28;7392033;19;20379;-62
2022/07/21 10:33:10;;;;;;;31.90;18.87;;;;;;;21.39;100.00;101477.50;7382151;19;20415;-62
2022/07/21 10:35:44;;;;;;;27.40;17.50;;;;;;;21.39;100.00;101477.50;7395367;19;20767;-61
2022/07/21 10:38:28;;;;;;;46.20;23.83;;;;;;;21.11;100.00;101482.53;7384477;19;20819;-62
2022/07/21 10:40:58;;;;;;;35.03;20.67;;;;;;;21.04;100.00;101485.97;7395454;19;20410;-61
2022/07/21 10:43:45;;;;;;;28.47;18.77;;;;;;;21.28;100.00;101479.19;7388747;19;20457;-62
2022/07/21 10:46:36;;;;;;;25.43;15.70;;;;;;;21.33;100.00;101487.94;7396782;19;20426;-62
2022/07/21 10:49:07;;;;;;;23.60;15.77;;;;;;;21.57;100.00;101507.41;7391807;19;20420;-62
2022/07/21 10:51:38;;;;;;;28.53;17.70;;;;;;;21.60;100.00;101523.19;7399859;19;20396;-62
2022/07/21 10:54:25;;;;;;;36.07;19.53;;;;;;;21.49;100.00;101520.50;7391745;19;20422;-62
2022/07/21 10:57:25;;;;;;;30.27;16.60;;;;;;;21.39;100.00;101535.25;7396340;19;20831;-62
2022/07/21 11:00:22;;;;;;;19.60;15.07;;;;;;;21.74;100.00;101525.94;7398331;19;20490;-61
2022/07/21 11:02:54;;;;;;;25.10;14.90;;;;;;;22.07;100.00;101529.69;7390990;19;20418;-62
2022/07/21 11:05:24;;;;;;;23.83;15.63;;;;;;;22.47;100.00;101533.38;7397271;19;20422;-62
2022/07/21 11:08:12;;;;;;;19.13;14.40;;;;;;;22.20;100.00;101546.38;7390852;19;20470;-62
2022/07/21 11:10:44;;;;;;;17.80;13.50;;;;;;;22.15;100.00;101537.59;7398758;19;20391;-62
2022/07/21 11:13:13;;;;;;;16.60;11.33;;;;;;;22.26;100.00;101545.56;7391345;19;20411;-62
2022/07/21 11:15:58;;;;;;;19.03;12.10;;;;;;;21.93;100.00;101563.72;7396432;19;20417;-61
2022/07/21 11:18:29;;;;;;;17.00;12.77;;;;;;;21.95;100.00;101559.34;7392389;19;20415;-62
2022/07/21 11:21:20;;;;;;;14.73;10.33;;;;;;;22.05;100.00;101564.69;7398074;19;20463;-62
2022/07/21 11:23:51;;;;;;;16.90;12.70;;;;;;;21.95;100.00;101566.38;7390492;19;20415;-62
2022/07/21 11:26:26;;;;;;;16.10;12.23;;;;;;;21.66;100.00;101549.50;7395967;19;20419;-61
2022/07/21 11:29:07;;;;;;;14.23;11.77;;;;;;;21.55;100.00;101543.28;7391290;19;20421;-62